createdAt,value
2022-09-18T00:02:16.319Z,99.58
2022-09-18T00:07:22.964Z,99.80
2022-09-18T00:12:26.987Z,100.00
2022-09-18T00:17:29.837Z,100.00
2022-09-18T00:22:31.745Z,100.00
2022-09-18T00:27:33.474Z,99.66
2022-09-18T00:32:37.694Z,99.94
2022-09-18T00:37:41.098Z,99.45
2022-09-18T00:42:45.436Z,99.71
2022-09-18T00:47:49.263Z,98.76
2022-09-18T00:52:52.737Z,100.00
2022-09-18T00:58:01.626Z,99.38
2022-09-18T01:03:04.394Z,99.39
2022-09-18T01:08:41.786Z,99.06
2022-09-18T01:13:59.339Z,99.70
2022-09-18T01:19:41.534Z,100.00
2022-09-18T01:25:21.704Z,99.83
2022-09-18T01:30:27.016Z,100.00
2022-09-18T01:35:49.861Z,100.00
2022-09-18T01:40:54.810Z,100.00
2022-09-18T01:46:04.392Z,99.97
2022-09-18T01:51:20.858Z,100.00
2022-09-18T01:56:33.745Z,100.00
2022-09-18T02:01:40.498Z,100.00
2022-09-18T02:06:51.790Z,99.55
2022-09-18T02:11:56.649Z,99.90
2022-09-18T02:17:06.432Z,100.00
2022-09-18T02:22:16.629Z,100.00
2022-09-18T02:27:21.888Z,99.47
2022-09-18T02:32:30.001Z,100.00
2022-09-18T02:37:55.085Z,100.00
2022-09-18T02:43:38.613Z,100.00
2022-09-18T02:49:05.421Z,100.00
2022-09-18T02:54:13.310Z,100.00
2022-09-18T02:59:23.394Z,99.46
2022-09-18T03:04:32.572Z,100.00
2022-09-18T03:09:50.087Z,100.00
2022-09-18T03:14:51.932Z,100.00
2022-09-18T03:19:54.122Z,100.00
2022-09-18T03:24:58.487Z,100.00
2022-09-18T03:30:04.606Z,100.00
2022-09-18T03:35:22.528Z,100.00
2022-09-18T03:40:29.375Z,100.00
2022-09-18T03:45:40.580Z,100.00
2022-09-18T03:50:48.634Z,100.00
2022-09-18T03:55:52.932Z,100.00
2022-09-18T04:01:15.514Z,100.00
2022-09-18T04:06:38.556Z,100.00
2022-09-18T04:11:53.102Z,100.00
2022-09-18T04:16:56.537Z,100.00
2022-09-18T04:21:58.482Z,100.00
2022-09-18T04:27:00.318Z,100.00
2022-09-18T04:32:03.330Z,100.00
2022-09-18T04:37:10.166Z,100.00
2022-09-18T04:42:15.533Z,100.00
2022-09-18T04:47:19.664Z,100.00
2022-09-18T04:52:21.667Z,100.00
2022-09-18T04:57:23.600Z,99.85
2022-09-18T05:02:25.519Z,98.55
2022-09-18T05:07:33.847Z,97.91
2022-09-18T05:12:37.876Z,97.36
2022-09-18T05:17:43.175Z,97.10
2022-09-18T05:22:50.302Z,97.47
2022-09-18T05:27:57.515Z,97.05
2022-09-18T05:33:09.524Z,97.25
2022-09-18T05:38:13.954Z,97.75
2022-09-18T05:43:23.473Z,98.05
2022-09-18T05:48:27.463Z,98.74
2022-09-18T05:53:30.258Z,98.29
2022-09-18T05:58:55.713Z,99.84
2022-09-18T06:03:59.690Z,98.57
2022-09-18T06:09:10.762Z,98.85
2022-09-18T06:14:17.705Z,99.66
2022-09-18T06:19:21.387Z,100.00
2022-09-18T06:24:28.987Z,100.00
2022-09-18T06:29:40.809Z,99.79
2022-09-18T06:35:03.921Z,100.00
2022-09-18T06:40:09.159Z,100.00
2022-09-18T06:45:33.905Z,100.00
2022-09-18T06:50:38.110Z,100.00
2022-09-18T06:55:42.381Z,100.00
2022-09-18T07:00:49.071Z,100.00
2022-09-18T07:06:12.814Z,100.00
2022-09-18T07:11:22.001Z,100.00
2022-09-18T07:16:24.076Z,100.00
2022-09-18T07:21:28.385Z,100.00
2022-09-18T07:26:32.828Z,100.00
2022-09-18T07:31:36.032Z,100.00
2022-09-18T07:36:45.928Z,100.00
2022-09-18T07:41:50.067Z,100.00
2022-09-18T07:46:55.415Z,100.00
2022-09-18T07:52:04.398Z,100.00
2022-09-18T07:57:12.796Z,100.00
2022-09-18T08:02:33.281Z,100.00
2022-09-18T08:07:35.665Z,100.00
2022-09-18T08:12:54.155Z,100.00
2022-09-18T08:18:00.599Z,100.00
2022-09-18T08:23:31.121Z,100.00
2022-09-18T08:28:35.420Z,100.00
2022-09-18T08:33:45.008Z,99.67
2022-09-18T08:38:48.789Z,97.22
2022-09-18T08:44:14.141Z,95.31
2022-09-18T08:49:28.141Z,94.19
2022-09-18T08:54:58.623Z,94.45
2022-09-18T09:00:36.702Z,93.90
2022-09-18T09:06:02.118Z,94.08
2022-09-18T09:11:13.471Z,94.21
2022-09-18T09:16:18.656Z,94.03
2022-09-18T09:21:24.810Z,93.73
2022-09-18T09:26:32.265Z,91.96
2022-09-18T09:31:56.226Z,91.61
2022-09-18T09:37:03.816Z,88.22
2022-09-18T09:42:26.438Z,85.84
2022-09-18T09:47:31.217Z,83.69
2022-09-18T09:52:33.797Z,76.52
2022-09-18T09:58:01.095Z,78.31
2022-09-18T10:03:36.948Z,79.61
2022-09-18T10:08:46.753Z,79.11
2022-09-18T10:13:59.703Z,78.84
2022-09-18T10:19:03.872Z,80.69
2022-09-18T10:24:22.430Z,78.71
2022-09-18T10:29:33.775Z,75.97
2022-09-18T10:34:49.736Z,72.67
2022-09-18T10:40:00.037Z,72.60
2022-09-18T10:45:23.956Z,72.55
2022-09-18T10:50:35.039Z,68.78
2022-09-18T10:55:55.642Z,67.68
2022-09-18T11:01:05.776Z,65.66
2022-09-18T11:06:18.959Z,64.43
2022-09-18T11:11:32.352Z,65.77
2022-09-18T11:16:48.676Z,65.17
2022-09-18T11:21:59.499Z,63.32
2022-09-18T11:27:30.339Z,64.93
2022-09-18T11:32:33.791Z,69.84
2022-09-18T11:37:45.395Z,73.01
2022-09-18T11:42:48.948Z,75.69
2022-09-18T11:47:58.642Z,73.78
2022-09-18T11:53:06.753Z,72.13
2022-09-18T11:58:17.168Z,70.14
2022-09-18T12:03:30.632Z,67.76
2022-09-18T12:09:12.457Z,69.48
2022-09-18T12:14:26.061Z,69.64
2022-09-18T12:19:55.455Z,67.75
2022-09-18T12:25:03.358Z,65.41
2022-09-18T12:30:55.155Z,61.62
2022-09-18T12:36:10.496Z,59.95
2022-09-18T12:41:57.645Z,60.46
2022-09-18T12:47:06.296Z,60.63
2022-09-18T12:52:27.920Z,59.48
2022-09-18T12:57:29.591Z,57.85
2022-09-18T13:02:39.400Z,55.80
2022-09-18T13:08:22.369Z,53.67
2022-09-18T13:14:08.623Z,52.22
2022-09-18T13:19:20.557Z,53.19
2022-09-18T13:24:29.998Z,55.33
2022-09-18T13:29:52.839Z,59.57
2022-09-18T13:34:59.101Z,50.53
2022-09-18T13:40:24.995Z,48.44
2022-09-18T13:45:29.953Z,47.99
2022-09-18T13:50:40.331Z,53.71
2022-09-18T13:55:53.450Z,55.89
2022-09-18T14:00:55.315Z,53.57
2022-09-18T14:05:57.832Z,49.70
2022-09-18T14:11:17.571Z,52.75
2022-09-18T14:16:41.054Z,49.58
2022-09-18T14:21:46.563Z,47.37
2022-09-18T14:26:59.684Z,50.33
2022-09-18T14:32:02.452Z,56.20
2022-09-18T14:37:28.567Z,62.00
2022-09-18T14:42:34.230Z,64.37
2022-09-18T14:47:36.111Z,65.97
2022-09-18T14:52:45.346Z,68.48
2022-09-18T14:58:00.172Z,70.88
2022-09-18T15:03:13.886Z,72.50
2022-09-18T15:08:26.475Z,74.52
2022-09-18T15:13:30.087Z,75.48
2022-09-18T15:18:42.250Z,76.83
2022-09-18T15:23:44.759Z,77.84
2022-09-18T15:28:49.261Z,76.91
2022-09-18T15:34:08.099Z,75.90
2022-09-18T15:39:29.132Z,75.12
2022-09-18T15:44:39.679Z,75.81
2022-09-18T15:49:41.352Z,76.39
2022-09-18T15:55:04.289Z,76.54
2022-09-18T16:00:20.325Z,76.47
2022-09-18T16:05:28.292Z,76.54
2022-09-18T16:10:37.158Z,76.54
2022-09-18T16:15:52.187Z,76.98
2022-09-18T16:21:01.687Z,75.90
2022-09-18T16:26:24.706Z,76.25
2022-09-18T16:31:38.714Z,76.98
2022-09-18T16:36:42.290Z,77.66
2022-09-18T16:41:44.500Z,77.04
2022-09-18T16:47:05.413Z,77.53
2022-09-18T16:52:10.695Z,78.84
2022-09-18T16:57:18.257Z,80.71
2022-09-18T17:02:23.298Z,81.58
2022-09-18T17:07:38.366Z,83.25
2022-09-18T17:12:45.252Z,83.33
2022-09-18T17:17:50.565Z,83.86
2022-09-18T17:22:52.759Z,83.91
2022-09-18T17:27:55.157Z,84.70
2022-09-18T17:32:56.924Z,84.90
2022-09-18T17:37:58.640Z,84.53
2022-09-18T17:43:03.986Z,83.79
2022-09-18T17:48:07.830Z,83.24
2022-09-18T17:53:09.699Z,84.28
2022-09-18T17:58:18.373Z,86.92
2022-09-18T18:03:22.644Z,89.13
2022-09-18T18:08:30.121Z,90.87
2022-09-18T18:13:40.272Z,91.75
2022-09-18T18:18:46.294Z,91.78
2022-09-18T18:24:05.774Z,92.45
2022-09-18T18:29:16.191Z,92.69
2022-09-18T18:34:21.102Z,92.98
2022-09-18T18:39:26.074Z,93.40
2022-09-18T18:44:27.982Z,94.39
2022-09-18T18:49:32.905Z,94.16
2022-09-18T18:54:39.574Z,95.06
2022-09-18T18:59:47.061Z,94.91
2022-09-18T19:04:48.944Z,94.94
2022-09-18T19:09:50.739Z,94.81
2022-09-18T19:14:55.164Z,94.71
2022-09-18T19:20:01.812Z,94.78
2022-09-18T19:25:06.653Z,95.02
2022-09-18T19:30:11.361Z,94.77
2022-09-18T19:35:17.034Z,94.90
2022-09-18T19:40:18.839Z,95.73
2022-09-18T19:45:29.686Z,96.22
2022-09-18T19:50:34.420Z,96.24
2022-09-18T19:55:36.258Z,96.23
2022-09-18T20:00:39.882Z,97.08
2022-09-18T20:05:44.353Z,96.36
2022-09-18T20:10:47.198Z,95.61
2022-09-18T20:16:10.608Z,95.19
2022-09-18T20:21:19.372Z,94.48
2022-09-18T20:26:46.302Z,95.28
2022-09-18T20:31:51.047Z,95.91
2022-09-18T20:36:55.205Z,96.36
2022-09-18T20:42:01.940Z,95.91
2022-09-18T20:47:05.270Z,96.10
2022-09-18T20:52:10.288Z,96.85
2022-09-18T20:57:14.531Z,97.00
2022-09-18T21:02:18.227Z,97.53
2022-09-18T21:07:21.463Z,97.12
2022-09-18T21:12:24.896Z,96.35
2022-09-18T21:17:30.510Z,96.20
2022-09-18T21:22:32.231Z,95.93
2022-09-18T21:27:37.544Z,96.44
2022-09-18T21:32:39.695Z,96.36
2022-09-18T21:37:49.799Z,97.48
2022-09-18T21:42:59.219Z,97.67
2022-09-18T21:48:03.184Z,98.94
2022-09-18T21:53:08.624Z,99.37
2022-09-18T21:58:12.009Z,99.46
2022-09-18T22:03:18.289Z,100.00
2022-09-18T22:08:20.069Z,100.00
2022-09-18T22:13:34.929Z,100.00
2022-09-18T22:18:38.170Z,100.00
2022-09-18T22:23:42.870Z,100.00
2022-09-18T22:28:49.592Z,100.00
2022-09-18T22:33:58.397Z,100.00
2022-09-18T22:39:05.027Z,100.00
2022-09-18T22:44:07.284Z,100.00
2022-09-18T22:49:12.056Z,100.00
2022-09-18T22:54:17.736Z,100.00
2022-09-18T22:59:21.796Z,100.00
2022-09-18T23:04:30.181Z,100.00
2022-09-18T23:09:31.970Z,100.00
2022-09-18T23:14:36.194Z,100.00
2022-09-18T23:19:37.930Z,100.00
2022-09-18T23:24:39.912Z,100.00
2022-09-18T23:29:44.041Z,100.00
2022-09-18T23:34:50.403Z,100.00
2022-09-18T23:39:53.227Z,100.00
2022-09-18T23:44:54.985Z,100.00
2022-09-18T23:49:58.981Z,100.00
2022-09-18T23:55:00.677Z,100.00
